PAGINA EN CONSTRUCCIÓN

DISCULPEN POSIBLES FALLOS



Daganzo more information Daganzo


Meteosat more information blitzortung!


Radar lluvias  rain snow radar


Visita nuestra red de sitios de meteo:

Documentation for the template used

MeteoibericaRed estaciones Meteorologicas



Sin Advertencias climatologicas .En este momento tenemos Nivel Verde.    No hay Alarmas

Informes METAR proximidad

   
LEMD - Madrid/Barajas
Actualización: 22-05-2018 17:00
Nubes dispersas  
Nubes dispersas  
   Viento: N 7.4 km/h
Viento: N 7.4 km/h
Temperatura: 21°C
Punto de rocío: 12°C
Humedad: 57%
Baromètro: 1014 hPa
Nublado: Nubes dispersas
Visibilidad: More than 10 km
detalles de la nube: Nubes dispersas 4000 ft
LEMD 221700Z 35004KT 320V020 9999 FEW040TCU 21/12 Q1014 NOSIG
LEBL - Barcelona/El Prat
Actualización: 22-05-2018 17:00
Nubes dispersas  
Nubes dispersas  
   Viento: SW 9.3 km/h
Viento: SW 9.3 km/h
Temperatura: 20°C
Punto de rocío: 16°C
Humedad: 78%
Baromètro: 1015 hPa
Nublado: Nubes dispersas
Visibilidad: More than 10 km
detalles de la nube: Nubes dispersas 2000 ft
LEBL 221700Z 22005KT 9999 FEW020 20/16 Q1015 NOSIG
LEVC - Valencia
Actualización: 22-05-2018 17:00
Nubes dispersas  
Nubes dispersas  
   Viento: E 9.3 km/h
Viento: E 9.3 km/h
Temperatura: 22°C
Punto de rocío: 14°C
Humedad: 61%
Baromètro: 1014 hPa
Nublado: Nubes dispersas
Visibilidad: More than 10 km
detalles de la nube: Nubes dispersas 3000 ft
LEVC 221700Z 08005KT 050V120 9999 FEW030 22/14 Q1014 NOSIG
LETO - Madrid/Torrejon
Actualización: 22-05-2018 17:00
Nubes dispersas  
Nubes dispersas  
   Viento: E 11.1 km/h
Viento: E 11.1 km/h
Temperatura: 21°C
Punto de rocío: 12°C
Humedad: 57%
Baromètro: 1014 hPa
Nublado: Nubes dispersas
Visibilidad: More than 10 km
detalles de la nube: Nubes dispersas 5000 ft
LETO 221700Z 08006KT 050V110 9999 FEW050TCU 21/12 Q1014 NOSIG
LEVS - Madrid/Cuatro Vientos
Actualización: 22-05-2018 17:00
Nubes dispersas  
Nubes dispersas  
   Viento: N 7.4 km/h
Viento: N 7.4 km/h
Temperatura: 21°C
Punto de rocío: 11°C
Humedad: 53%
Baromètro: 1015 hPa
Nublado: Nubes dispersas
Visibilidad: More than 10 km
detalles de la nube: Nubes dispersas 3000 ft
LEVS 221700Z 35004KT 300V050 9999 FEW030 21/11 Q1015
LEGT - Madrid/Getafe
Actualización: 22-05-2018 17:00
Nubes dispersas  
Nubes dispersas  
   Viento: NNE 13 km/h
Viento: NNE 13 km/h
Temperatura: 21°C
Punto de rocío: 12°C
Humedad: 57%
Baromètro: 1014 hPa
Nublado: Nubes dispersas
Visibilidad: More than 10 km
detalles de la nube: Nubes dispersas 4000 ft
LEGT 221700Z 03007KT 9999 FEW040TCU 21/12 Q1014
LEVD - Valladolid
Actualización: 22-05-2018 17:00
Nubes dispersas  
Nubes dispersas  
   Viento: varía 3.7 km/h
Viento: varía 3.7 km/h
Temperatura: 21°C
Punto de rocío: 8°C
Humedad: 43%
Baromètro: 1015 hPa
Nublado: Nubes dispersas
Visibilidad: More than 10 km
detalles de la nube: Nubes dispersas 3000 ft
LEVD 221700Z VRB02KT 9999 FEW030 21/08 Q1015
LEZG - Zaragoza
Actualización: 22-05-2018 17:00
Nubes dispersas  
Nubes dispersas  
   Viento: NNW 16.7 km/h
Viento: NNW 16.7 km/h
Temperatura: 26°C
Punto de rocío: 4°C
Humedad: 24%
Baromètro: 1013 hPa
Nublado: Nubes dispersas
Visibilidad: More than 10 km
detalles de la nube: Nubes dispersas 4000 ft
LEZG 221700Z 33009KT 290V010 9999 FEW040 26/04 Q1013
LEVT - Vitoria
Actualización: 22-05-2018 17:00
Nubes dispersas  
Nubes dispersas  
   Viento: NNE 22.2 km/h
Viento: NNE 22.2 km/h
Temperatura: 20°C
Punto de rocío: 9°C
Humedad: 49%
Baromètro: 1016 hPa
Nublado: Nubes dispersas
Visibilidad: More than 10 km
detalles de la nube: Nubes dispersas 5000 ft
LEVT 221700Z 03012KT 350V060 9999 FEW050 20/09 Q1016
LELN - Leon/Virgen del Camino
Actualización: 22-05-2018 17:00
Nubes dispersas  
Nubes dispersas  
   Viento: NE 1.9 km/h
Viento: NE 1.9 km/h
Temperatura: 22°C
Punto de rocío: 4°C
Humedad: 31%
Baromètro: 1014 hPa
Nublado: Nubes dispersas
Visibilidad: More than 10 km
detalles de la nube: Nubes dispersas 4000 ft
LELN 221700Z 04001KT 9999 FEW040 22/04 Q1014
LEPP - Pamplona/Noain
Actualización: 22-05-2018 17:00
Despejado  
Despejado  
   Viento: NNE 18.5 km/h
Viento: NNE 18.5 km/h
Temperatura: 22°C
Punto de rocío: 10°C
Humedad: 47%
Baromètro: 1015 hPa
Visibilidad: More than 10 km
detalles de la nube: Despejado
LEPP 221700Z 02010KT 340V050 CAVOK 22/10 Q1015
LEBB - Bilbao/Sondica
Actualización: 22-05-2018 17:00
Despejado  
Despejado  
   Viento: NNW 9.3 km/h
Viento: NNW 9.3 km/h
Temperatura: 22°C
Punto de rocío: 13°C
Humedad: 57%
Baromètro: 1016 hPa
Visibilidad: More than 10 km
detalles de la nube: Despejado
LEBB 221700Z 33005KT 300V020 CAVOK 22/13 Q1016 NOSIG

Guión original por  Saratoga-weather.org Adaptado para la plantilla por  Weerstation Leuven

Usted encontrará nuestra información del tiempo también en:

WeatherCloud

Weather Underground

Iberian Peninsula Weather Network

AWEKAS

Citizen Weather Observer Program (CWOP)